sensor_id;sensor_type;location;lat;lon;timestamp;temperature;humidity
33827;DHT22;20128;45.582;5.298;2023-05-10T00:00:25;16.90;83.80
33827;DHT22;20128;45.582;5.298;2023-05-10T00:02:50;16.80;83.00
33827;DHT22;20128;45.582;5.298;2023-05-10T00:05:16;16.70;83.30
33827;DHT22;20128;45.582;5.298;2023-05-10T00:07:42;16.60;83.40
33827;DHT22;20128;45.582;5.298;2023-05-10T00:10:10;16.40;83.80
33827;DHT22;20128;45.582;5.298;2023-05-10T00:12:36;16.30;84.20
33827;DHT22;20128;45.582;5.298;2023-05-10T00:15:02;16.30;84.30
33827;DHT22;20128;45.582;5.298;2023-05-10T00:17:28;16.30;84.40
33827;DHT22;20128;45.582;5.298;2023-05-10T00:19:54;16.10;84.60
33827;DHT22;20128;45.582;5.298;2023-05-10T00:22:20;16.00;85.10
33827;DHT22;20128;45.582;5.298;2023-05-10T00:24:46;15.80;85.30
33827;DHT22;20128;45.582;5.298;2023-05-10T00:27:11;15.60;85.80
33827;DHT22;20128;45.582;5.298;2023-05-10T00:29:37;15.60;86.10
33827;DHT22;20128;45.582;5.298;2023-05-10T00:32:03;15.40;86.40
33827;DHT22;20128;45.582;5.298;2023-05-10T00:34:29;15.40;86.50
33827;DHT22;20128;45.582;5.298;2023-05-10T00:36:54;15.30;86.60
33827;DHT22;20128;45.582;5.298;2023-05-10T00:39:20;15.40;86.90
33827;DHT22;20128;45.582;5.298;2023-05-10T00:41:46;15.60;86.50
33827;DHT22;20128;45.582;5.298;2023-05-10T00:44:11;15.80;85.60
33827;DHT22;20128;45.582;5.298;2023-05-10T00:46:37;15.70;85.10
33827;DHT22;20128;45.582;5.298;2023-05-10T00:49:03;15.70;85.40
33827;DHT22;20128;45.582;5.298;2023-05-10T00:51:29;15.80;85.30
33827;DHT22;20128;45.582;5.298;2023-05-10T00:53:56;15.80;85.10
33827;DHT22;20128;45.582;5.298;2023-05-10T00:56:22;15.80;84.70
33827;DHT22;20128;45.582;5.298;2023-05-10T00:58:49;15.90;84.50
33827;DHT22;20128;45.582;5.298;2023-05-10T01:01:15;15.90;84.20
33827;DHT22;20128;45.582;5.298;2023-05-10T01:03:41;16.00;84.20
33827;DHT22;20128;45.582;5.298;2023-05-10T01:06:07;16.00;84.00
33827;DHT22;20128;45.582;5.298;2023-05-10T01:08:33;15.90;84.10
33827;DHT22;20128;45.582;5.298;2023-05-10T01:10:59;15.70;84.20
33827;DHT22;20128;45.582;5.298;2023-05-10T01:13:46;15.80;84.60
33827;DHT22;20128;45.582;5.298;2023-05-10T01:16:13;15.80;84.60
33827;DHT22;20128;45.582;5.298;2023-05-10T01:18:40;15.90;84.30
33827;DHT22;20128;45.582;5.298;2023-05-10T01:21:23;15.90;84.30
33827;DHT22;20128;45.582;5.298;2023-05-10T01:35:35;15.80;84.30
33827;DHT22;20128;45.582;5.298;2023-05-10T01:38:11;15.80;84.20
33827;DHT22;20128;45.582;5.298;2023-05-10T01:40:46;15.70;84.40
33827;DHT22;20128;45.582;5.298;2023-05-10T01:43:23;15.70;84.50
33827;DHT22;20128;45.582;5.298;2023-05-10T01:46:05;15.80;84.30
33827;DHT22;20128;45.582;5.298;2023-05-10T01:48:41;15.80;84.10
33827;DHT22;20128;45.582;5.298;2023-05-10T01:51:12;15.90;84.00
33827;DHT22;20128;45.582;5.298;2023-05-10T01:53:39;16.00;83.80
33827;DHT22;20128;45.582;5.298;2023-05-10T01:56:07;16.00;83.40
33827;DHT22;20128;45.582;5.298;2023-05-10T01:58:34;16.00;83.70
33827;DHT22;20128;45.582;5.298;2023-05-10T02:01:03;16.00;83.90
33827;DHT22;20128;45.582;5.298;2023-05-10T02:03:31;15.90;83.80
33827;DHT22;20128;45.582;5.298;2023-05-10T02:05:57;16.00;83.80
33827;DHT22;20128;45.582;5.298;2023-05-10T02:08:24;16.00;83.80
33827;DHT22;20128;45.582;5.298;2023-05-10T02:10:53;15.90;83.80
33827;DHT22;20128;45.582;5.298;2023-05-10T02:13:21;15.80;84.10
33827;DHT22;20128;45.582;5.298;2023-05-10T02:15:48;15.80;84.40
33827;DHT22;20128;45.582;5.298;2023-05-10T02:18:15;15.70;84.40
33827;DHT22;20128;45.582;5.298;2023-05-10T02:20:43;15.60;84.60
33827;DHT22;20128;45.582;5.298;2023-05-10T02:23:09;15.60;84.60
33827;DHT22;20128;45.582;5.298;2023-05-10T02:25:37;15.60;84.70
33827;DHT22;20128;45.582;5.298;2023-05-10T02:28:05;15.60;84.90
33827;DHT22;20128;45.582;5.298;2023-05-10T02:30:33;15.60;85.00
33827;DHT22;20128;45.582;5.298;2023-05-10T02:32:59;15.60;85.10
33827;DHT22;20128;45.582;5.298;2023-05-10T02:35:26;15.70;85.30
33827;DHT22;20128;45.582;5.298;2023-05-10T02:37:53;15.70;85.20
33827;DHT22;20128;45.582;5.298;2023-05-10T02:40:20;15.70;85.20
33827;DHT22;20128;45.582;5.298;2023-05-10T02:42:48;15.70;85.10
33827;DHT22;20128;45.582;5.298;2023-05-10T02:45:19;15.80;84.90
33827;DHT22;20128;45.582;5.298;2023-05-10T02:47:46;15.80;84.90
33827;DHT22;20128;45.582;5.298;2023-05-10T02:50:12;15.90;85.00
33827;DHT22;20128;45.582;5.298;2023-05-10T02:52:47;15.80;85.20
33827;DHT22;20128;45.582;5.298;2023-05-10T02:55:15;15.80;85.20
33827;DHT22;20128;45.582;5.298;2023-05-10T02:57:48;15.80;85.30
33827;DHT22;20128;45.582;5.298;2023-05-10T03:00:16;15.80;85.40
33827;DHT22;20128;45.582;5.298;2023-05-10T03:02:42;15.90;85.40
33827;DHT22;20128;45.582;5.298;2023-05-10T03:05:07;15.90;85.30
33827;DHT22;20128;45.582;5.298;2023-05-10T03:07:33;15.90;85.30
33827;DHT22;20128;45.582;5.298;2023-05-10T03:10:00;15.90;85.40
33827;DHT22;20128;45.582;5.298;2023-05-10T03:15:51;15.70;85.60
33827;DHT22;20128;45.582;5.298;2023-05-10T03:18:44;15.70;85.60
33827;DHT22;20128;45.582;5.298;2023-05-10T03:21:14;15.70;85.70
33827;DHT22;20128;45.582;5.298;2023-05-10T03:23:49;15.70;85.80
33827;DHT22;20128;45.582;5.298;2023-05-10T03:26:23;15.70;85.70
33827;DHT22;20128;45.582;5.298;2023-05-10T03:28:51;15.80;85.60
33827;DHT22;20128;45.582;5.298;2023-05-10T03:31:18;15.80;85.60
33827;DHT22;20128;45.582;5.298;2023-05-10T03:33:51;15.80;85.60
33827;DHT22;20128;45.582;5.298;2023-05-10T03:36:17;15.80;85.60
33827;DHT22;20128;45.582;5.298;2023-05-10T03:38:43;15.80;85.80
33827;DHT22;20128;45.582;5.298;2023-05-10T03:41:09;15.70;85.90
33827;DHT22;20128;45.582;5.298;2023-05-10T03:43:35;15.70;86.10
33827;DHT22;20128;45.582;5.298;2023-05-10T03:46:04;15.70;86.40
33827;DHT22;20128;45.582;5.298;2023-05-10T03:48:33;15.70;86.30
33827;DHT22;20128;45.582;5.298;2023-05-10T03:50:58;15.70;86.00
33827;DHT22;20128;45.582;5.298;2023-05-10T03:53:24;15.80;86.10
33827;DHT22;20128;45.582;5.298;2023-05-10T03:55:50;15.70;86.20
33827;DHT22;20128;45.582;5.298;2023-05-10T03:58:16;15.70;86.50
33827;DHT22;20128;45.582;5.298;2023-05-10T04:00:41;15.60;86.70
33827;DHT22;20128;45.582;5.298;2023-05-10T04:03:11;15.60;86.40
33827;DHT22;20128;45.582;5.298;2023-05-10T04:05:37;15.60;86.40
33827;DHT22;20128;45.582;5.298;2023-05-10T04:08:03;15.60;86.60
33827;DHT22;20128;45.582;5.298;2023-05-10T04:10:29;15.60;86.40
33827;DHT22;20128;45.582;5.298;2023-05-10T04:12:55;15.60;86.50
33827;DHT22;20128;45.582;5.298;2023-05-10T04:15:20;15.50;86.60
33827;DHT22;20128;45.582;5.298;2023-05-10T04:17:46;15.60;86.60
33827;DHT22;20128;45.582;5.298;2023-05-10T04:20:12;15.60;86.40
33827;DHT22;20128;45.582;5.298;2023-05-10T04:22:38;15.60;86.30
33827;DHT22;20128;45.582;5.298;2023-05-10T04:25:04;15.50;86.20
33827;DHT22;20128;45.582;5.298;2023-05-10T04:27:30;15.50;86.40
33827;DHT22;20128;45.582;5.298;2023-05-10T04:29:56;15.50;86.70
33827;DHT22;20128;45.582;5.298;2023-05-10T04:32:22;15.50;86.70
33827;DHT22;20128;45.582;5.298;2023-05-10T04:34:49;15.50;86.60
33827;DHT22;20128;45.582;5.298;2023-05-10T04:37:16;15.50;86.50
33827;DHT22;20128;45.582;5.298;2023-05-10T04:39:41;15.50;86.00
33827;DHT22;20128;45.582;5.298;2023-05-10T04:42:07;15.50;86.10
33827;DHT22;20128;45.582;5.298;2023-05-10T04:44:33;15.50;86.10
33827;DHT22;20128;45.582;5.298;2023-05-10T04:46:59;15.50;86.00
33827;DHT22;20128;45.582;5.298;2023-05-10T04:49:25;15.40;86.20
33827;DHT22;20128;45.582;5.298;2023-05-10T04:51:50;15.40;86.50
33827;DHT22;20128;45.582;5.298;2023-05-10T04:54:16;15.30;86.70
33827;DHT22;20128;45.582;5.298;2023-05-10T04:56:41;15.30;86.60
33827;DHT22;20128;45.582;5.298;2023-05-10T04:59:07;15.30;86.50
33827;DHT22;20128;45.582;5.298;2023-05-10T05:01:33;15.30;86.30
33827;DHT22;20128;45.582;5.298;2023-05-10T05:03:59;15.30;86.00
33827;DHT22;20128;45.582;5.298;2023-05-10T05:06:25;15.20;85.70
33827;DHT22;20128;45.582;5.298;2023-05-10T05:08:51;15.20;85.60
33827;DHT22;20128;45.582;5.298;2023-05-10T05:11:17;15.10;85.70
33827;DHT22;20128;45.582;5.298;2023-05-10T05:13:43;15.10;85.60
33827;DHT22;20128;45.582;5.298;2023-05-10T05:16:09;15.10;85.50
33827;DHT22;20128;45.582;5.298;2023-05-10T05:18:35;15.10;85.30
33827;DHT22;20128;45.582;5.298;2023-05-10T05:21:01;15.10;85.00
33827;DHT22;20128;45.582;5.298;2023-05-10T05:23:26;15.10;85.70
33827;DHT22;20128;45.582;5.298;2023-05-10T05:25:52;15.20;86.00
33827;DHT22;20128;45.582;5.298;2023-05-10T05:28:19;15.30;86.00
33827;DHT22;20128;45.582;5.298;2023-05-10T05:30:45;15.30;85.90
33827;DHT22;20128;45.582;5.298;2023-05-10T05:33:12;15.50;85.70
33827;DHT22;20128;45.582;5.298;2023-05-10T05:35:38;15.50;84.70
33827;DHT22;20128;45.582;5.298;2023-05-10T05:38:04;15.50;85.30
33827;DHT22;20128;45.582;5.298;2023-05-10T05:40:29;15.70;85.30
33827;DHT22;20128;45.582;5.298;2023-05-10T05:42:55;15.80;85.20
33827;DHT22;20128;45.582;5.298;2023-05-10T05:45:21;16.00;84.80
33827;DHT22;20128;45.582;5.298;2023-05-10T05:47:46;16.10;84.50
33827;DHT22;20128;45.582;5.298;2023-05-10T05:50:12;16.20;83.90
33827;DHT22;20128;45.582;5.298;2023-05-10T05:52:38;16.20;83.40
33827;DHT22;20128;45.582;5.298;2023-05-10T05:55:04;16.20;80.70
33827;DHT22;20128;45.582;5.298;2023-05-10T05:57:29;16.20;80.50
33827;DHT22;20128;45.582;5.298;2023-05-10T05:59:55;16.10;80.10
33827;DHT22;20128;45.582;5.298;2023-05-10T06:02:21;16.10;79.00
33827;DHT22;20128;45.582;5.298;2023-05-10T06:04:47;16.00;78.60
33827;DHT22;20128;45.582;5.298;2023-05-10T06:07:12;16.00;78.60
33827;DHT22;20128;45.582;5.298;2023-05-10T06:09:38;15.90;76.80
33827;DHT22;20128;45.582;5.298;2023-05-10T06:12:03;15.90;76.20
33827;DHT22;20128;45.582;5.298;2023-05-10T06:14:29;15.80;77.00
33827;DHT22;20128;45.582;5.298;2023-05-10T06:16:55;15.80;75.90
33827;DHT22;20128;45.582;5.298;2023-05-10T06:19:20;15.80;76.60
33827;DHT22;20128;45.582;5.298;2023-05-10T06:21:46;15.80;75.10
33827;DHT22;20128;45.582;5.298;2023-05-10T06:24:12;15.80;76.40
33827;DHT22;20128;45.582;5.298;2023-05-10T06:26:37;15.90;76.60
33827;DHT22;20128;45.582;5.298;2023-05-10T06:29:03;15.90;74.70
33827;DHT22;20128;45.582;5.298;2023-05-10T06:31:28;15.90;75.20
33827;DHT22;20128;45.582;5.298;2023-05-10T06:33:54;15.90;75.70
33827;DHT22;20128;45.582;5.298;2023-05-10T06:36:20;16.00;75.90
33827;DHT22;20128;45.582;5.298;2023-05-10T06:38:46;16.10;76.20
33827;DHT22;20128;45.582;5.298;2023-05-10T06:41:12;16.20;76.10
33827;DHT22;20128;45.582;5.298;2023-05-10T06:43:37;16.20;74.90
33827;DHT22;20128;45.582;5.298;2023-05-10T06:46:06;16.30;75.10
33827;DHT22;20128;45.582;5.298;2023-05-10T06:48:32;16.30;75.40
33827;DHT22;20128;45.582;5.298;2023-05-10T06:50:58;16.40;75.00
33827;DHT22;20128;45.582;5.298;2023-05-10T06:53:24;16.40;73.30
33827;DHT22;20128;45.582;5.298;2023-05-10T06:55:50;16.40;73.40
33827;DHT22;20128;45.582;5.298;2023-05-10T06:58:15;16.40;72.80
33827;DHT22;20128;45.582;5.298;2023-05-10T07:00:41;16.40;72.30
33827;DHT22;20128;45.582;5.298;2023-05-10T07:03:09;16.40;71.70
33827;DHT22;20128;45.582;5.298;2023-05-10T07:05:35;16.40;70.40
33827;DHT22;20128;45.582;5.298;2023-05-10T07:08:00;16.40;70.90
33827;DHT22;20128;45.582;5.298;2023-05-10T07:10:26;16.50;71.70
33827;DHT22;20128;45.582;5.298;2023-05-10T07:12:52;16.40;68.00
33827;DHT22;20128;45.582;5.298;2023-05-10T07:15:18;16.40;69.60
33827;DHT22;20128;45.582;5.298;2023-05-10T07:17:43;16.30;70.00
33827;DHT22;20128;45.582;5.298;2023-05-10T07:20:09;16.40;70.40
33827;DHT22;20128;45.582;5.298;2023-05-10T07:22:35;16.40;70.90
33827;DHT22;20128;45.582;5.298;2023-05-10T07:25:01;16.40;68.30
33827;DHT22;20128;45.582;5.298;2023-05-10T07:27:27;16.40;69.20
33827;DHT22;20128;45.582;5.298;2023-05-10T07:29:53;16.50;70.00
33827;DHT22;20128;45.582;5.298;2023-05-10T07:32:20;16.50;68.50
33827;DHT22;20128;45.582;5.298;2023-05-10T07:34:46;16.40;68.20
33827;DHT22;20128;45.582;5.298;2023-05-10T07:37:11;16.50;69.70
33827;DHT22;20128;45.582;5.298;2023-05-10T07:39:37;16.50;70.20
33827;DHT22;20128;45.582;5.298;2023-05-10T07:42:03;16.60;70.10
33827;DHT22;20128;45.582;5.298;2023-05-10T07:44:29;16.70;69.50
33827;DHT22;20128;45.582;5.298;2023-05-10T07:46:55;16.80;68.50
33827;DHT22;20128;45.582;5.298;2023-05-10T07:49:22;16.80;67.90
33827;DHT22;20128;45.582;5.298;2023-05-10T07:51:49;16.90;67.80
33827;DHT22;20128;45.582;5.298;2023-05-10T07:54:15;16.90;69.40
33827;DHT22;20128;45.582;5.298;2023-05-10T07:56:41;16.90;67.30
33827;DHT22;20128;45.582;5.298;2023-05-10T07:59:15;16.90;68.60
33827;DHT22;20128;45.582;5.298;2023-05-10T08:01:41;17.10;68.30
33827;DHT22;20128;45.582;5.298;2023-05-10T08:04:07;17.10;65.10
33827;DHT22;20128;45.582;5.298;2023-05-10T08:06:34;17.20;67.00
33827;DHT22;20128;45.582;5.298;2023-05-10T08:09:00;17.30;65.80
33827;DHT22;20128;45.582;5.298;2023-05-10T08:11:25;17.30;65.80
33827;DHT22;20128;45.582;5.298;2023-05-10T08:13:53;17.30;65.70
33827;DHT22;20128;45.582;5.298;2023-05-10T08:16:18;17.20;63.30
33827;DHT22;20128;45.582;5.298;2023-05-10T08:18:45;17.30;64.30
33827;DHT22;20128;45.582;5.298;2023-05-10T08:21:12;17.30;64.00
33827;DHT22;20128;45.582;5.298;2023-05-10T08:23:38;17.20;64.40
33827;DHT22;20128;45.582;5.298;2023-05-10T08:26:04;17.30;63.70
33827;DHT22;20128;45.582;5.298;2023-05-10T08:28:30;17.30;64.80
33827;DHT22;20128;45.582;5.298;2023-05-10T08:30:56;17.30;64.30
33827;DHT22;20128;45.582;5.298;2023-05-10T08:33:21;17.30;63.10
33827;DHT22;20128;45.582;5.298;2023-05-10T08:35:47;17.30;62.90
33827;DHT22;20128;45.582;5.298;2023-05-10T08:38:13;17.30;64.30
33827;DHT22;20128;45.582;5.298;2023-05-10T08:40:42;17.30;65.40
33827;DHT22;20128;45.582;5.298;2023-05-10T08:43:10;17.40;64.10
33827;DHT22;20128;45.582;5.298;2023-05-10T08:45:40;17.40;63.90
33827;DHT22;20128;45.582;5.298;2023-05-10T08:48:10;17.50;62.70
33827;DHT22;20128;45.582;5.298;2023-05-10T08:50:38;17.50;61.60
33827;DHT22;20128;45.582;5.298;2023-05-10T08:53:06;17.50;62.70
33827;DHT22;20128;45.582;5.298;2023-05-10T08:55:33;17.50;61.90
33827;DHT22;20128;45.582;5.298;2023-05-10T08:58:00;17.50;62.50
33827;DHT22;20128;45.582;5.298;2023-05-10T09:00:26;17.50;59.90
33827;DHT22;20128;45.582;5.298;2023-05-10T09:02:52;17.50;60.90
33827;DHT22;20128;45.582;5.298;2023-05-10T09:05:18;17.50;61.70
33827;DHT22;20128;45.582;5.298;2023-05-10T09:07:44;17.40;60.30
33827;DHT22;20128;45.582;5.298;2023-05-10T09:10:10;17.40;59.50
33827;DHT22;20128;45.582;5.298;2023-05-10T09:12:37;17.40;61.00
33827;DHT22;20128;45.582;5.298;2023-05-10T09:15:04;17.40;61.30
33827;DHT22;20128;45.582;5.298;2023-05-10T09:17:31;17.40;61.70
33827;DHT22;20128;45.582;5.298;2023-05-10T09:20:00;17.50;61.70
33827;DHT22;20128;45.582;5.298;2023-05-10T09:22:27;17.50;61.30
33827;DHT22;20128;45.582;5.298;2023-05-10T09:25:12;17.40;61.40
33827;DHT22;20128;45.582;5.298;2023-05-10T09:27:44;17.40;60.70
33827;DHT22;20128;45.582;5.298;2023-05-10T09:30:14;17.30;60.80
33827;DHT22;20128;45.582;5.298;2023-05-10T09:32:42;17.20;60.90
33827;DHT22;20128;45.582;5.298;2023-05-10T09:35:19;17.20;62.40
33827;DHT22;20128;45.582;5.298;2023-05-10T09:37:47;17.10;62.90
33827;DHT22;20128;45.582;5.298;2023-05-10T09:40:18;17.00;63.50
33827;DHT22;20128;45.582;5.298;2023-05-10T09:42:58;17.00;63.80
33827;DHT22;20128;45.582;5.298;2023-05-10T09:45:31;17.10;64.00
33827;DHT22;20128;45.582;5.298;2023-05-10T09:47:57;17.20;65.10
33827;DHT22;20128;45.582;5.298;2023-05-10T09:50:24;17.20;63.80
33827;DHT22;20128;45.582;5.298;2023-05-10T09:53:00;17.20;62.80
33827;DHT22;20128;45.582;5.298;2023-05-10T09:55:41;17.20;63.00
33827;DHT22;20128;45.582;5.298;2023-05-10T09:58:07;17.20;62.20
33827;DHT22;20128;45.582;5.298;2023-05-10T10:00:37;17.20;63.70
33827;DHT22;20128;45.582;5.298;2023-05-10T10:03:03;17.10;63.10
33827;DHT22;20128;45.582;5.298;2023-05-10T10:05:30;17.10;63.10
33827;DHT22;20128;45.582;5.298;2023-05-10T10:08:02;17.10;61.70
33827;DHT22;20128;45.582;5.298;2023-05-10T10:10:29;17.10;61.80
33827;DHT22;20128;45.582;5.298;2023-05-10T10:12:56;17.10;61.80
33827;DHT22;20128;45.582;5.298;2023-05-10T10:15:22;17.10;62.60
33827;DHT22;20128;45.582;5.298;2023-05-10T10:17:49;17.00;62.40
33827;DHT22;20128;45.582;5.298;2023-05-10T10:20:15;17.10;62.50
33827;DHT22;20128;45.582;5.298;2023-05-10T10:22:41;17.10;62.60
33827;DHT22;20128;45.582;5.298;2023-05-10T10:25:10;17.10;62.90
33827;DHT22;20128;45.582;5.298;2023-05-10T10:28:06;17.20;63.10
33827;DHT22;20128;45.582;5.298;2023-05-10T10:30:48;17.30;63.00
33827;DHT22;20128;45.582;5.298;2023-05-10T10:36:01;17.40;61.60
33827;DHT22;20128;45.582;5.298;2023-05-10T10:44:24;17.40;62.70
33827;DHT22;20128;45.582;5.298;2023-05-10T10:49:42;17.50;62.80
33827;DHT22;20128;45.582;5.298;2023-05-10T10:52:28;17.50;63.10
33827;DHT22;20128;45.582;5.298;2023-05-10T10:57:42;17.60;61.50
33827;DHT22;20128;45.582;5.298;2023-05-10T11:00:30;17.70;62.00
33827;DHT22;20128;45.582;5.298;2023-05-10T11:02:57;17.70;61.80
33827;DHT22;20128;45.582;5.298;2023-05-10T11:08:28;17.70;61.50
33827;DHT22;20128;45.582;5.298;2023-05-10T11:13:32;17.80;61.40
33827;DHT22;20128;45.582;5.298;2023-05-10T11:15:59;17.80;61.70
33827;DHT22;20128;45.582;5.298;2023-05-10T11:18:28;17.90;62.00
33827;DHT22;20128;45.582;5.298;2023-05-10T11:21:01;17.90;61.50
33827;DHT22;20128;45.582;5.298;2023-05-10T11:24:00;18.00;61.00
33827;DHT22;20128;45.582;5.298;2023-05-10T11:26:34;18.00;58.00
33827;DHT22;20128;45.582;5.298;2023-05-10T11:29:00;18.00;59.80
33827;DHT22;20128;45.582;5.298;2023-05-10T11:31:28;18.20;60.00
33827;DHT22;20128;45.582;5.298;2023-05-10T11:33:55;18.30;59.40
33827;DHT22;20128;45.582;5.298;2023-05-10T11:36:24;18.50;57.80
33827;DHT22;20128;45.582;5.298;2023-05-10T11:38:51;18.50;56.70
33827;DHT22;20128;45.582;5.298;2023-05-10T11:41:18;18.60;55.80
33827;DHT22;20128;45.582;5.298;2023-05-10T11:43:46;18.80;57.70
33827;DHT22;20128;45.582;5.298;2023-05-10T11:46:14;18.90;56.40
33827;DHT22;20128;45.582;5.298;2023-05-10T11:48:41;18.90;56.20
33827;DHT22;20128;45.582;5.298;2023-05-10T11:51:10;18.90;55.50
33827;DHT22;20128;45.582;5.298;2023-05-10T11:53:36;18.90;55.60
33827;DHT22;20128;45.582;5.298;2023-05-10T11:56:06;18.90;56.30
33827;DHT22;20128;45.582;5.298;2023-05-10T11:58:32;19.00;56.30
33827;DHT22;20128;45.582;5.298;2023-05-10T12:01:02;19.00;55.60
33827;DHT22;20128;45.582;5.298;2023-05-10T12:03:28;19.10;55.70
33827;DHT22;20128;45.582;5.298;2023-05-10T12:05:58;19.10;55.00
33827;DHT22;20128;45.582;5.298;2023-05-10T12:08:25;19.20;55.30
33827;DHT22;20128;45.582;5.298;2023-05-10T12:10:54;19.20;54.40
33827;DHT22;20128;45.582;5.298;2023-05-10T12:13:29;19.30;55.40
33827;DHT22;20128;45.582;5.298;2023-05-10T12:15:57;19.30;55.40
33827;DHT22;20128;45.582;5.298;2023-05-10T12:18:24;19.30;53.80
33827;DHT22;20128;45.582;5.298;2023-05-10T12:20:52;19.40;54.40
33827;DHT22;20128;45.582;5.298;2023-05-10T12:23:21;19.30;54.70
33827;DHT22;20128;45.582;5.298;2023-05-10T12:25:46;19.30;53.30
33827;DHT22;20128;45.582;5.298;2023-05-10T12:28:12;19.30;53.00
33827;DHT22;20128;45.582;5.298;2023-05-10T12:30:38;19.40;53.30
33827;DHT22;20128;45.582;5.298;2023-05-10T12:33:12;19.50;53.40
33827;DHT22;20128;45.582;5.298;2023-05-10T12:35:52;19.60;52.30
33827;DHT22;20128;45.582;5.298;2023-05-10T12:38:26;19.60;52.80
33827;DHT22;20128;45.582;5.298;2023-05-10T12:40:58;19.80;53.50
33827;DHT22;20128;45.582;5.298;2023-05-10T12:43:24;19.80;52.40
33827;DHT22;20128;45.582;5.298;2023-05-10T12:45:49;19.80;51.90
33827;DHT22;20128;45.582;5.298;2023-05-10T12:48:15;19.70;52.10
33827;DHT22;20128;45.582;5.298;2023-05-10T12:50:41;19.80;51.50
33827;DHT22;20128;45.582;5.298;2023-05-10T12:53:07;19.90;52.20
33827;DHT22;20128;45.582;5.298;2023-05-10T12:55:32;20.10;52.60
33827;DHT22;20128;45.582;5.298;2023-05-10T12:57:58;20.20;52.50
33827;DHT22;20128;45.582;5.298;2023-05-10T13:00:23;20.30;50.00
33827;DHT22;20128;45.582;5.298;2023-05-10T13:07:41;20.20;50.80
33827;DHT22;20128;45.582;5.298;2023-05-10T13:10:09;20.20;49.80
33827;DHT22;20128;45.582;5.298;2023-05-10T13:12:35;20.20;50.50
33827;DHT22;20128;45.582;5.298;2023-05-10T13:15:02;20.30;49.30
33827;DHT22;20128;45.582;5.298;2023-05-10T13:17:28;20.20;49.20
33827;DHT22;20128;45.582;5.298;2023-05-10T13:19:54;20.10;48.50
33827;DHT22;20128;45.582;5.298;2023-05-10T13:22:20;20.20;49.50
33827;DHT22;20128;45.582;5.298;2023-05-10T13:24:46;20.30;49.10
33827;DHT22;20128;45.582;5.298;2023-05-10T13:27:11;20.40;48.00
33827;DHT22;20128;45.582;5.298;2023-05-10T13:29:37;20.60;48.30
33827;DHT22;20128;45.582;5.298;2023-05-10T13:32:03;20.70;48.50
33827;DHT22;20128;45.582;5.298;2023-05-10T13:34:28;20.70;47.60
33827;DHT22;20128;45.582;5.298;2023-05-10T13:36:54;20.90;48.20
33827;DHT22;20128;45.582;5.298;2023-05-10T13:39:21;21.00;47.10
33827;DHT22;20128;45.582;5.298;2023-05-10T13:41:47;21.10;47.90
33827;DHT22;20128;45.582;5.298;2023-05-10T13:44:14;21.20;47.50
33827;DHT22;20128;45.582;5.298;2023-05-10T13:46:40;21.40;47.30
33827;DHT22;20128;45.582;5.298;2023-05-10T13:49:08;21.50;47.10
33827;DHT22;20128;45.582;5.298;2023-05-10T13:51:34;21.50;46.50
33827;DHT22;20128;45.582;5.298;2023-05-10T13:54:01;21.50;46.50
33827;DHT22;20128;45.582;5.298;2023-05-10T13:56:27;21.40;47.10
33827;DHT22;20128;45.582;5.298;2023-05-10T13:58:52;21.30;46.60
33827;DHT22;20128;45.582;5.298;2023-05-10T14:01:18;21.10;47.10
33827;DHT22;20128;45.582;5.298;2023-05-10T14:03:44;21.10;47.80
33827;DHT22;20128;45.582;5.298;2023-05-10T14:06:10;21.10;48.20
33827;DHT22;20128;45.582;5.298;2023-05-10T14:08:35;21.10;47.60
33827;DHT22;20128;45.582;5.298;2023-05-10T14:11:01;21.10;48.00
33827;DHT22;20128;45.582;5.298;2023-05-10T14:13:27;21.10;47.40
33827;DHT22;20128;45.582;5.298;2023-05-10T14:15:54;21.00;45.90
33827;DHT22;20128;45.582;5.298;2023-05-10T14:18:20;21.00;45.80
33827;DHT22;20128;45.582;5.298;2023-05-10T14:20:46;21.00;46.00
33827;DHT22;20128;45.582;5.298;2023-05-10T14:23:12;21.00;46.60
33827;DHT22;20128;45.582;5.298;2023-05-10T14:25:40;21.20;47.40
33827;DHT22;20128;45.582;5.298;2023-05-10T14:28:06;21.30;47.40
33827;DHT22;20128;45.582;5.298;2023-05-10T14:30:32;21.40;47.20
33827;DHT22;20128;45.582;5.298;2023-05-10T14:32:59;21.60;46.30
33827;DHT22;20128;45.582;5.298;2023-05-10T14:35:27;21.60;46.70
33827;DHT22;20128;45.582;5.298;2023-05-10T14:37:52;21.50;46.30
33827;DHT22;20128;45.582;5.298;2023-05-10T14:40:18;21.40;46.90
33827;DHT22;20128;45.582;5.298;2023-05-10T14:42:44;21.30;46.90
33827;DHT22;20128;45.582;5.298;2023-05-10T14:45:10;21.20;46.80
33827;DHT22;20128;45.582;5.298;2023-05-10T14:47:36;21.10;47.20
33827;DHT22;20128;45.582;5.298;2023-05-10T14:50:02;21.10;48.00
33827;DHT22;20128;45.582;5.298;2023-05-10T14:52:27;21.00;48.30
33827;DHT22;20128;45.582;5.298;2023-05-10T14:54:53;21.00;48.10
33827;DHT22;20128;45.582;5.298;2023-05-10T14:57:19;21.00;47.80
33827;DHT22;20128;45.582;5.298;2023-05-10T14:59:44;21.00;47.70
33827;DHT22;20128;45.582;5.298;2023-05-10T15:02:10;21.00;48.30
33827;DHT22;20128;45.582;5.298;2023-05-10T15:04:36;21.00;48.50
33827;DHT22;20128;45.582;5.298;2023-05-10T15:07:02;21.10;48.40
33827;DHT22;20128;45.582;5.298;2023-05-10T15:09:28;21.10;48.20
33827;DHT22;20128;45.582;5.298;2023-05-10T15:11:54;21.10;48.30
33827;DHT22;20128;45.582;5.298;2023-05-10T15:14:20;21.10;48.40
33827;DHT22;20128;45.582;5.298;2023-05-10T15:16:45;21.10;47.80
33827;DHT22;20128;45.582;5.298;2023-05-10T15:19:11;21.20;47.70
33827;DHT22;20128;45.582;5.298;2023-05-10T15:21:37;21.20;48.10
33827;DHT22;20128;45.582;5.298;2023-05-10T15:24:06;21.30;48.20
33827;DHT22;20128;45.582;5.298;2023-05-10T15:26:32;21.50;47.90
33827;DHT22;20128;45.582;5.298;2023-05-10T15:28:58;21.70;47.80
33827;DHT22;20128;45.582;5.298;2023-05-10T15:31:23;21.80;47.90
33827;DHT22;20128;45.582;5.298;2023-05-10T15:33:49;21.90;48.30
33827;DHT22;20128;45.582;5.298;2023-05-10T15:36:15;21.90;46.70
33827;DHT22;20128;45.582;5.298;2023-05-10T15:38:42;22.00;46.70
33827;DHT22;20128;45.582;5.298;2023-05-10T15:41:07;22.10;46.10
33827;DHT22;20128;45.582;5.298;2023-05-10T15:43:33;22.00;46.50
33827;DHT22;20128;45.582;5.298;2023-05-10T15:45:58;21.80;46.70
33827;DHT22;20128;45.582;5.298;2023-05-10T15:48:24;21.70;47.40
33827;DHT22;20128;45.582;5.298;2023-05-10T15:50:50;21.70;47.40
33827;DHT22;20128;45.582;5.298;2023-05-10T15:53:16;21.70;47.40
33827;DHT22;20128;45.582;5.298;2023-05-10T15:55:42;21.60;47.90
33827;DHT22;20128;45.582;5.298;2023-05-10T15:58:08;21.40;47.90
33827;DHT22;20128;45.582;5.298;2023-05-10T16:00:33;21.40;47.90
33827;DHT22;20128;45.582;5.298;2023-05-10T16:03:00;21.40;48.30
33827;DHT22;20128;45.582;5.298;2023-05-10T16:05:25;21.40;48.50
33827;DHT22;20128;45.582;5.298;2023-05-10T16:07:54;21.50;48.30
33827;DHT22;20128;45.582;5.298;2023-05-10T16:10:20;21.50;47.20